KSBP/SBP METAR and TAF weather

Enter ICAO airport designator
Station Type Date Time Source
KSBP METAR 2019/04/25 16:56 UTC NOAA

KSBP 251656Z 00000KT 8SM OVC005 13/12 A3000 RMK AO2 SLP158 T01330117 $


Station Type Date Time Source
KSBP Decoded METAR 2019/04/25 16:56 UTC NOAA

SAN LUIS OBISPO MC CHESNEY, CA, United States (KSBP) 35-14N 120-38W 59M
Apr 25, 2019 - 12:56 PM EDT / 2019.04.25 1656 UTC
Wind: Calm:0
Visibility: 8 mile(s):0
Sky conditions: overcast
Temperature: 55.9 F (13.3 C)
Dew Point: 53.1 F (11.7 C)
Relative Humidity: 90%
Pressure (altimeter): 30 in. Hg (1015 hPa)
ob: KSBP 251656Z 00000KT 8SM OVC005 13/12 A3000 RMK AO2 SLP158 T01330117
cycle: 17

Station Type Date Time Source
KSBP TAF 2019/04/25 18:28 UTC NOAA

TAF KSBP 251726Z 2518/2618 10003KT P6SM OVC005
FM251900 26008KT P6SM SKC
FM260300 VRB03KT P6SM BKN007
FM260700 VRB03KT 3SM BR OVC005
FM261000 VRB03KT 1/2SM FG OVC002
FM261600 VRB03KT 3SM BR OVC005

Example: see airport list